Time;durP1;ratioP1;P1;durP2;ratioP2;P2;SDS_P1;SDS_P2;PMS_P1;PMS_P2;Temp;Humidity;BMP_temperature;BMP_pressure;BME280_temperature;BME280_humidity;BME280_pressure;Samples;Min_cycle;Max_cycle;Signal;HPM_P1;HPM_P2
2021/01/10 00:00:29;;;;;;;124.57;54.50;;;26.10;2201.60;;;;;;5013491;28;20049;-74
2021/01/10 00:02:56;;;;;;;117.87;52.37;;;26.20;2201.60;;;;;;5014595;28;20042;-75
2021/01/10 00:05:24;;;;;;;112.30;50.87;;;26.20;2201.60;;;;;;5014616;28;20418;-75
2021/01/10 00:07:52;;;;;;;122.00;52.67;;;26.10;2201.60;;;;;;5014509;28;20048;-74
2021/01/10 00:10:19;;;;;;;108.60;50.10;;;26.10;2201.60;;;;;;5014040;28;20144;-74
2021/01/10 00:12:45;;;;;;;115.93;53.63;;;25.90;2201.60;;;;;;5014681;28;20036;-75
2021/01/10 00:15:14;;;;;;;120.73;53.13;;;26.20;2201.60;;;;;;5014051;28;20033;-74
2021/01/10 00:17:41;;;;;;;123.90;54.27;;;26.20;2201.60;;;;;;5013380;28;20053;-74
2021/01/10 00:20:09;;;;;;;104.47;47.97;;;26.20;2201.60;;;;;;5014732;28;20109;-75
2021/01/10 00:22:35;;;;;;;127.73;54.10;;;26.20;2201.60;;;;;;5013558;28;20547;-74
2021/01/10 00:25:03;;;;;;;110.90;51.27;;;26.20;2201.60;;;;;;5015436;28;20028;-74
2021/01/10 00:27:29;;;;;;;109.03;50.63;;;26.20;2201.60;;;;;;5013401;28;20117;-74
2021/01/10 00:29:55;;;;;;;109.47;51.03;;;26.20;2201.60;;;;;;5014333;28;20114;-74
2021/01/10 00:32:21;;;;;;;116.53;52.83;;;26.20;2201.60;;;;;;5014608;28;20026;-74
2021/01/10 00:34:47;;;;;;;118.10;52.63;;;26.30;2201.60;;;;;;5014834;28;20538;-74
2021/01/10 00:37:19;;;;;;;116.57;52.83;;;26.30;2201.60;;;;;;5013966;28;20061;-75
2021/01/10 00:39:46;;;;;;;118.03;51.73;;;26.20;2201.60;;;;;;5014003;28;20057;-75
2021/01/10 00:42:13;;;;;;;118.30;53.83;;;26.30;2201.60;;;;;;5012308;28;20026;-75
2021/01/10 00:44:40;;;;;;;113.77;51.83;;;26.20;2201.60;;;;;;5013495;28;20084;-75
2021/01/10 00:47:06;;;;;;;120.57;54.03;;;26.10;2201.60;;;;;;5012556;28;20037;-75
2021/01/10 00:49:33;;;;;;;111.57;50.77;;;26.20;2201.60;;;;;;5013794;28;20033;-74
2021/01/10 00:51:59;;;;;;;114.37;52.00;;;26.20;2201.60;;;;;;5012675;28;20048;-75
2021/01/10 00:54:27;;;;;;;95.77;45.63;;;26.20;2201.60;;;;;;5012405;28;20079;-74
2021/01/10 00:56:52;;;;;;;103.63;45.87;;;26.20;2201.60;;;;;;5013775;28;20380;-78
2021/01/10 00:59:18;;;;;;;105.93;48.40;;;26.20;2201.60;;;;;;5013709;28;20030;-74
2021/01/10 01:01:44;;;;;;;104.47;47.90;;;26.20;2201.60;;;;;;5012533;28;20041;-75
2021/01/10 01:04:11;;;;;;;98.37;47.67;;;26.20;2201.60;;;;;;5012499;28;20437;-74
2021/01/10 01:06:37;;;;;;;101.43;48.00;;;26.30;2201.60;;;;;;5012417;28;20022;-75
2021/01/10 01:09:05;;;;;;;105.67;51.60;;;26.20;2201.60;;;;;;5012614;28;20490;-75
2021/01/10 01:11:33;;;;;;;122.77;52.73;;;26.30;2201.60;;;;;;5012417;28;20018;-74
2021/01/10 01:14:00;;;;;;;125.13;56.23;;;26.20;2201.60;;;;;;5013572;28;20037;-74
2021/01/10 01:16:26;;;;;;;115.03;51.37;;;26.20;2201.60;;;;;;5013422;28;20505;-74
2021/01/10 01:18:52;;;;;;;123.90;54.20;;;26.20;2201.60;;;;;;5013358;28;20053;-74
2021/01/10 01:21:19;;;;;;;135.67;55.77;;;26.20;2201.60;;;;;;5013381;28;20024;-75
2021/01/10 01:23:46;;;;;;;128.20;56.57;;;26.10;2201.60;;;;;;5013181;28;20069;-74
2021/01/10 01:26:19;;;;;;;133.47;59.97;;;26.30;2201.60;;;;;;5016545;28;20014;-75
2021/01/10 01:28:45;;;;;;;135.90;57.00;;;26.30;2201.60;;;;;;5017513;28;20026;-74
2021/01/10 01:31:17;;;;;;;129.43;56.60;;;26.30;2201.60;;;;;;5016092;28;20023;-75
2021/01/10 01:33:43;;;;;;;129.37;56.37;;;26.30;2201.60;;;;;;5016222;28;20136;-74
2021/01/10 01:36:14;;;;;;;135.77;59.40;;;26.30;2201.60;;;;;;5017331;28;20068;-74
2021/01/10 01:38:42;;;;;;;118.77;54.20;;;26.20;2201.60;;;;;;5016173;28;20049;-74
2021/01/10 01:41:09;;;;;;;112.57;50.90;;;26.20;2201.60;;;;;;5017157;28;20052;-74
2021/01/10 01:43:39;;;;;;;111.13;51.40;;;26.20;2201.60;;;;;;5015711;28;20568;-74
2021/01/10 01:46:07;;;;;;;110.07;48.90;;;26.30;2201.60;;;;;;5017388;28;20115;-74
2021/01/10 01:48:35;;;;;;;106.07;48.73;;;26.30;2201.60;;;;;;5017015;28;20029;-74
2021/01/10 01:51:01;;;;;;;112.80;48.80;;;26.30;2201.60;;;;;;5015763;28;20021;-75
2021/01/10 01:53:27;;;;;;;115.53;51.87;;;26.30;2201.60;;;;;;5015646;28;20037;-74
2021/01/10 01:55:55;;;;;;;108.63;49.17;;;26.20;2201.60;;;;;;5016838;28;20054;-74
2021/01/10 01:58:22;;;;;;;119.87;53.07;;;26.20;2201.60;;;;;;5016451;28;20022;-74
2021/01/10 02:00:48;;;;;;;113.83;52.37;;;26.20;2201.60;;;;;;5017008;28;20177;-75
2021/01/10 02:03:20;;;;;;;117.10;51.67;;;26.30;2201.60;;;;;;5017767;28;20054;-74
2021/01/10 02:05:49;;;;;;;113.87;51.80;;;26.30;2201.60;;;;;;5017493;28;20109;-74
2021/01/10 02:08:16;;;;;;;121.97;55.47;;;26.30;2201.60;;;;;;5017091;28;20130;-74
2021/01/10 02:10:42;;;;;;;127.63;55.90;;;26.20;2201.60;;;;;;5016917;28;20022;-74
2021/01/10 02:13:13;;;;;;;132.30;55.10;;;26.30;2201.60;;;;;;5016571;28;20030;-75
2021/01/10 02:15:41;;;;;;;128.87;55.43;;;26.30;2201.60;;;;;;5016503;28;20044;-74
2021/01/10 02:18:08;;;;;;;133.20;58.53;;;26.30;2201.60;;;;;;5016161;28;20095;-74
2021/01/10 02:20:39;;;;;;;128.20;56.67;;;26.30;2201.60;;;;;;5016253;28;20064;-74
2021/01/10 02:23:11;;;;;;;140.70;60.30;;;26.30;2201.60;;;;;;5016211;28;20050;-74
2021/01/10 02:25:37;;;;;;;141.50;59.23;;;26.30;2201.60;;;;;;5015195;28;20022;-74
2021/01/10 02:28:05;;;;;;;133.17;56.90;;;26.30;2201.60;;;;;;5015042;28;20386;-74
2021/01/10 02:30:33;;;;;;;128.13;57.87;;;26.30;2201.60;;;;;;5014896;28;20486;-74
2021/01/10 02:33:11;;;;;;;141.00;60.67;;;26.40;2201.60;;;;;;5016135;28;20060;-74
2021/01/10 02:35:40;;;;;;;143.63;59.57;;;26.30;2201.60;;;;;;5016037;28;20387;-73
2021/01/10 02:38:27;;;;;;;151.57;60.33;;;26.30;2201.60;;;;;;5015528;28;20513;-74
2021/01/10 02:41:25;;;;;;;141.13;56.33;;;26.30;2201.60;;;;;;5014992;28;20026;-74
2021/01/10 02:44:50;;;;;;;134.03;53.13;;;26.30;2201.60;;;;;;5013138;28;20037;-74
2021/01/10 02:47:16;;;;;;;123.53;51.40;;;26.30;2201.60;;;;;;4975100;28;20058;-74
2021/01/10 02:49:42;;;;;;;125.50;51.77;;;26.30;2201.60;;;;;;4975034;28;20035;-74
2021/01/10 02:52:08;;;;;;;115.80;49.27;;;26.30;2201.60;;;;;;4974915;28;20049;-74
2021/01/10 02:54:34;;;;;;;108.17;46.73;;;26.30;2201.60;;;;;;4974943;28;20057;-74
2021/01/10 02:57:15;;;;;;;103.50;46.00;;;26.30;2201.60;;;;;;4975048;28;20050;-74
2021/01/10 02:59:45;;;;;;;102.30;45.10;;;26.30;2201.60;;;;;;4975056;28;20062;-74
2021/01/10 03:02:16;;;;;;;88.13;40.73;;;26.30;2201.60;;;;;;4974624;28;20027;-74
2021/01/10 03:04:42;;;;;;;89.40;40.60;;;26.30;2201.60;;;;;;4974663;28;20094;-74
2021/01/10 03:07:09;;;;;;;89.53;40.90;;;26.30;2201.60;;;;;;4958298;28;20447;-74
2021/01/10 03:09:35;;;;;;;89.40;41.40;;;26.30;2201.60;;;;;;4974756;28;20043;-74
2021/01/10 03:12:26;;;;;;;86.40;38.60;;;26.40;2201.60;;;;;;4974485;28;20035;-74
2021/01/10 03:14:58;;;;;;;81.17;39.60;;;26.30;2201.60;;;;;;4974590;28;20031;-74
2021/01/10 03:17:41;;;;;;;89.30;40.13;;;26.30;2201.60;;;;;;4984601;28;20103;-74
2021/01/10 03:20:12;;;;;;;86.27;40.23;;;26.30;2201.60;;;;;;5015359;28;20038;-74
2021/01/10 03:22:38;;;;;;;95.97;44.73;;;26.30;2201.60;;;;;;5014150;28;20070;-74
2021/01/10 03:25:06;;;;;;;100.67;45.00;;;26.30;2201.60;;;;;;5015361;28;20101;-74
2021/01/10 03:27:36;;;;;;;92.23;44.13;;;26.30;2201.60;;;;;;5015221;28;20061;-74
2021/01/10 03:30:08;;;;;;;96.70;42.70;;;26.30;2201.60;;;;;;5015137;28;20022;-74
2021/01/10 03:32:34;;;;;;;79.00;40.20;;;26.30;2201.60;;;;;;5014046;28;20490;-74
2021/01/10 03:35:00;;;;;;;90.77;43.37;;;26.30;2201.60;;;;;;5015014;28;20081;-74
2021/01/10 03:37:26;;;;;;;88.87;43.33;;;26.30;2201.60;;;;;;5014952;28;20029;-74
2021/01/10 03:39:52;;;;;;;89.93;42.50;;;26.20;2201.60;;;;;;5014893;28;20049;-74
2021/01/10 03:42:21;;;;;;;90.10;42.70;;;26.30;2201.60;;;;;;5014831;28;20060;-74
2021/01/10 03:44:47;;;;;;;89.50;43.37;;;26.30;2201.60;;;;;;5014859;28;20022;-74
2021/01/10 03:47:13;;;;;;;90.30;44.27;;;26.30;2201.60;;;;;;5013542;28;20026;-74
2021/01/10 03:49:38;;;;;;;88.50;42.67;;;26.30;2201.60;;;;;;5013703;28;20387;-74
2021/01/10 03:52:04;;;;;;;88.87;42.90;;;26.40;2201.60;;;;;;5014818;28;20457;-75
2021/01/10 03:54:30;;;;;;;90.03;43.97;;;26.40;2201.60;;;;;;5014736;28;20430;-74
2021/01/10 03:56:56;;;;;;;89.70;44.20;;;26.30;2201.60;;;;;;5013422;28;20030;-75
2021/01/10 03:59:22;;;;;;;87.30;43.33;;;26.30;2201.60;;;;;;5014477;28;20030;-74
2021/01/10 04:01:48;;;;;;;90.70;44.87;;;26.20;2201.60;;;;;;5014436;28;20041;-74
2021/01/10 04:04:14;;;;;;;86.57;43.30;;;26.30;2201.60;;;;;;5014476;28;20117;-74
2021/01/10 04:06:40;;;;;;;92.90;45.33;;;26.30;2201.60;;;;;;5014313;28;20113;-74
2021/01/10 04:09:06;;;;;;;93.40;45.87;;;26.30;2201.60;;;;;;5014430;28;20105;-74
2021/01/10 04:11:32;;;;;;;92.10;45.07;;;26.30;2201.60;;;;;;5014422;28;20051;-74
2021/01/10 04:13:58;;;;;;;83.10;41.50;;;26.30;2201.60;;;;;;5014381;28;20030;-74
2021/01/10 04:16:24;;;;;;;83.07;41.53;;;26.30;2201.60;;;;;;5012898;28;20386;-74
2021/01/10 04:18:50;;;;;;;82.20;40.97;;;26.30;2201.60;;;;;;5014070;28;20108;-74
2021/01/10 04:21:16;;;;;;;81.90;42.33;;;26.30;2201.60;;;;;;5014077;28;20033;-74
2021/01/10 04:23:42;;;;;;;79.63;42.17;;;26.30;2201.60;;;;;;5013905;28;20042;-74
2021/01/10 04:26:08;;;;;;;79.83;41.30;;;26.30;2201.60;;;;;;5014134;28;20018;-74
2021/01/10 04:28:34;;;;;;;81.63;42.07;;;26.30;2201.60;;;;;;5014285;28;20030;-74
2021/01/10 04:31:00;;;;;;;78.90;40.30;;;26.40;2201.60;;;;;;5014106;28;20049;-74
2021/01/10 04:33:27;;;;;;;83.73;43.00;;;26.40;2201.60;;;;;;5014405;28;20080;-74
2021/01/10 04:35:53;;;;;;;83.37;45.27;;;26.30;2201.60;;;;;;5013932;28;20034;-74
2021/01/10 04:38:19;;;;;;;88.37;44.40;;;26.30;2201.60;;;;;;5014035;28;20061;-74
2021/01/10 04:40:45;;;;;;;86.23;44.70;;;26.30;2201.60;;;;;;5013881;28;20064;-74
2021/01/10 04:43:11;;;;;;;90.30;45.50;;;26.30;2201.60;;;;;;5012507;28;20042;-74
2021/01/10 04:45:38;;;;;;;86.73;43.37;;;26.30;2201.60;;;;;;5013880;28;20026;-74
2021/01/10 04:48:05;;;;;;;87.20;44.97;;;26.30;2201.60;;;;;;5012511;28;20109;-74
2021/01/10 04:50:33;;;;;;;91.07;44.63;;;26.30;2201.60;;;;;;5013719;28;20105;-74
2021/01/10 04:53:02;;;;;;;87.93;44.27;;;26.30;2201.60;;;;;;5013667;28;20474;-74
2021/01/10 04:55:31;;;;;;;86.20;43.57;;;26.30;2201.60;;;;;;5013602;28;20018;-74
2021/01/10 04:58:07;;;;;;;85.57;42.73;;;51.20;2227.20;;;;;;5013661;28;20022;-74
2021/01/10 05:00:35;;;;;;;84.03;42.33;;;26.30;2201.60;;;;;;5012085;28;20026;-74
2021/01/10 05:03:16;;;;;;;77.13;40.93;;;26.30;2201.60;;;;;;5013651;28;20493;-75
2021/01/10 05:05:42;;;;;;;83.60;42.80;;;26.30;2201.60;;;;;;5029475;28;20006;-75
2021/01/10 05:08:12;;;;;;;84.40;42.63;;;26.30;2201.60;;;;;;5038487;22;20058;-75
2021/01/10 05:10:39;;;;;;;75.10;38.47;;;26.30;2201.60;;;;;;5031355;28;20026;-75
2021/01/10 05:13:07;;;;;;;81.43;40.97;;;26.30;2201.60;;;;;;5032220;28;20414;-76
2021/01/10 05:15:34;;;;;;;78.03;39.47;;;26.40;2201.60;;;;;;5031478;28;20007;-76
2021/01/10 05:18:03;;;;;;;73.27;39.00;;;26.30;2201.60;;;;;;5030452;28;20506;-76
2021/01/10 05:20:31;;;;;;;76.07;40.53;;;26.40;2201.60;;;;;;5028400;28;20026;-76
2021/01/10 05:23:01;;;;;;;75.17;40.57;;;26.40;2201.60;;;;;;5028607;28;20038;-76
2021/01/10 05:25:28;;;;;;;81.93;41.10;;;26.30;2201.60;;;;;;5028154;28;20160;-76
2021/01/10 05:27:55;;;;;;;75.50;38.40;;;26.40;2201.60;;;;;;5029371;28;20037;-75
2021/01/10 05:30:32;;;;;;;72.93;38.90;;;26.30;2201.60;;;;;;5028675;28;20017;-76
2021/01/10 05:32:58;;;;;;;80.80;40.67;;;26.30;2201.60;;;;;;5032287;28;20061;-76
2021/01/10 05:35:24;;;;;;;85.67;41.60;;;26.30;2201.60;;;;;;5031774;28;20010;-75
2021/01/10 05:37:57;;;;;;;75.80;41.00;;;26.30;2201.60;;;;;;5031308;28;20037;-76
2021/01/10 05:40:31;;;;;;;80.50;42.10;;;26.30;2201.60;;;;;;5033057;28;20006;-75
2021/01/10 05:43:07;;;;;;;80.05;41.67;;;26.30;2201.60;;;;;;5031467;28;20138;-75
2021/01/10 05:45:37;;;;;;;86.87;42.80;;;26.30;2201.60;;;;;;5030681;28;20066;-75
2021/01/10 05:48:13;;;;;;;82.27;40.00;;;26.20;2201.60;;;;;;5032428;28;20045;-75
2021/01/10 05:51:09;;;;;;;82.30;41.27;;;26.30;2201.60;;;;;;5032186;28;20045;-76
2021/01/10 05:53:41;;;;;;;78.13;37.90;;;26.20;2201.60;;;;;;5033230;28;20036;-76
2021/01/10 05:56:20;;;;;;;72.80;36.83;;;26.30;2201.60;;;;;;5033719;28;20018;-75
2021/01/10 05:59:06;;;;;;;76.60;37.80;;;26.20;2201.60;;;;;;5035167;28;20022;-75
2021/01/10 06:01:41;;;;;;;78.17;38.33;;;26.20;2201.60;;;;;;5034937;28;20475;-76
2021/01/10 06:04:23;;;;;;;76.90;38.50;;;26.20;2201.60;;;;;;5040978;22;20403;-76
2021/01/10 06:06:49;;;;;;;75.97;37.97;;;26.20;2201.60;;;;;;5032787;28;20022;-76
2021/01/10 06:09:15;;;;;;;76.00;37.87;;;26.30;2201.60;;;;;;5029949;28;20010;-76
2021/01/10 06:12:04;;;;;;;70.97;36.30;;;26.20;2201.60;;;;;;5035754;28;20018;-75
2021/01/10 06:14:34;;;;;;;70.77;36.70;;;26.20;2201.60;;;;;;5035671;28;20010;-76
2021/01/10 06:17:00;;;;;;;68.43;35.37;;;26.20;2201.60;;;;;;5038449;28;20025;-76
2021/01/10 06:19:28;;;;;;;71.53;35.97;;;26.20;2201.60;;;;;;5034323;28;20121;-75
2021/01/10 06:21:56;;;;;;;67.67;35.30;;;26.20;2201.60;;;;;;5033778;28;20018;-76
2021/01/10 06:24:24;;;;;;;74.83;38.67;;;26.20;2201.60;;;;;;5036205;28;20018;-76
2021/01/10 06:27:03;;;;;;;65.83;35.20;;;26.20;2201.60;;;;;;5035853;28;20013;-75
2021/01/10 06:29:54;;;;;;;72.43;36.20;;;26.20;2201.60;;;;;;5034705;28;20117;-75
2021/01/10 06:32:25;;;;;;;80.23;42.27;;;26.10;2201.60;;;;;;5027144;28;20390;-76
2021/01/10 06:34:51;;;;;;;401.17;218.10;;;26.10;2201.60;;;;;;5027537;28;20022;-76
2021/01/10 06:37:18;;;;;;;215.20;104.33;;;25.70;2201.60;;;;;;5028134;28;20427;-76
2021/01/10 06:39:48;;;;;;;801.33;442.13;;;26.10;2201.60;;;;;;5023880;28;20088;-75
2021/01/10 06:42:15;;;;;;;606.43;316.07;;;26.10;2201.60;;;;;;5029727;28;20097;-76
2021/01/10 06:44:46;;;;;;;629.13;327.60;;;51.20;2227.20;;;;;;5033895;28;20005;-76
2021/01/10 06:47:22;;;;;;;361.57;165.17;;;26.10;2201.60;;;;;;5034682;28;20067;-76
2021/01/10 06:49:49;;;;;;;233.60;113.20;;;26.10;2201.60;;;;;;5034137;28;20433;-76
2021/01/10 06:52:19;;;;;;;170.67;87.50;;;26.10;2201.60;;;;;;5032467;28;20068;-76
2021/01/10 06:54:48;;;;;;;194.40;95.53;;;26.20;2201.60;;;;;;5030302;28;20084;-75
2021/01/10 06:57:15;;;;;;;102.20;50.80;;;26.20;2201.60;;;;;;5033680;28;20030;-75
2021/01/10 07:00:00;;;;;;;84.87;46.77;;;26.20;2201.60;;;;;;5033112;28;20010;-76
2021/01/10 07:02:27;;;;;;;109.33;53.53;;;26.20;2201.60;;;;;;5032433;28;20045;-76
2021/01/10 07:04:55;;;;;;;109.07;53.37;;;26.20;2201.60;;;;;;5033856;28;20010;-75
2021/01/10 07:07:53;;;;;;;99.83;50.17;;;26.20;2201.60;;;;;;5032745;28;20445;-74
2021/01/10 07:10:25;;;;;;;123.93;60.43;;;26.20;2201.60;;;;;;4955377;28;20512;-75
2021/01/10 07:12:52;;;;;;;106.57;51.93;;;26.20;2201.60;;;;;;4960077;28;20030;-75
2021/01/10 07:15:17;;;;;;;106.43;52.77;;;26.20;2201.60;;;;;;4956848;28;20122;-75
2021/01/10 07:18:05;;;;;;;79.83;41.80;;;26.10;2201.60;;;;;;4975038;28;20015;-76
2021/01/10 07:20:40;;;;;;;101.43;50.60;;;26.10;2201.60;;;;;;4955488;28;20488;-75
2021/01/10 07:23:26;;;;;;;117.73;53.80;;;26.10;2201.60;;;;;;4958507;28;20040;-75
2021/01/10 07:25:52;;;;;;;98.43;49.90;;;26.10;2201.60;;;;;;4971818;28;20027;-75
2021/01/10 07:28:39;;;;;;;84.67;44.60;;;26.20;2201.60;;;;;;4973125;28;20562;-75
2021/01/10 07:31:28;;;;;;;130.13;60.27;;;26.10;2201.60;;;;;;4959306;28;20015;-75
2021/01/10 07:34:10;;;;;;;106.23;56.20;;;26.20;2201.60;;;;;;4962982;28;20047;-75
2021/01/10 07:36:46;;;;;;;139.80;69.20;;;26.20;2201.60;;;;;;4966649;28;20455;-75
2021/01/10 07:39:12;;;;;;;198.40;91.57;;;26.20;2201.60;;;;;;4963955;29;20035;-75
2021/01/10 07:41:38;;;;;;;213.33;99.13;;;26.20;2201.60;;;;;;4970118;28;20158;-75
2021/01/10 07:44:04;;;;;;;98.23;51.23;;;26.20;2201.60;;;;;;4964256;28;20031;-76
2021/01/10 07:46:51;;;;;;;115.00;58.63;;;26.20;2201.60;;;;;;5014837;28;20041;-75
2021/01/10 07:49:23;;;;;;;89.93;48.03;;;26.30;2201.60;;;;;;5030339;28;20052;-75
2021/01/10 07:51:49;;;;;;;244.33;116.73;;;26.20;2201.60;;;;;;5025117;28;20102;-75
2021/01/10 07:54:15;;;;;;;154.33;78.90;;;26.30;2201.60;;;;;;5024404;28;20474;-75
2021/01/10 07:56:41;;;;;;;185.07;92.50;;;26.30;2201.60;;;;;;5024018;28;20030;-75
2021/01/10 07:59:39;;;;;;;136.73;68.93;;;26.30;2201.60;;;;;;5024829;28;20029;-75
2021/01/10 08:02:05;;;;;;;102.37;52.97;;;26.30;2201.60;;;;;;5027825;28;20026;-75
2021/01/10 08:04:33;;;;;;;153.87;82.77;;;26.30;2201.60;;;;;;5032450;28;20040;-76
2021/01/10 08:07:01;;;;;;;175.63;90.57;;;26.30;2201.60;;;;;;5032323;28;20014;-76
2021/01/10 08:10:12;;;;;;;263.60;126.37;;;26.30;2201.60;;;;;;5033282;28;20463;-75
2021/01/10 08:12:42;;;;;;;337.97;162.27;;;26.30;2201.60;;;;;;5034549;28;20088;-76
2021/01/10 08:15:11;;;;;;;262.70;135.73;;;26.30;2201.60;;;;;;5031801;28;20056;-75
2021/01/10 08:17:40;;;;;;;197.40;100.83;;;26.30;2201.60;;;;;;5033830;28;20030;-76
2021/01/10 08:20:20;;;;;;;245.07;118.07;;;26.30;2201.60;;;;;;5034822;28;20013;-75
2021/01/10 08:22:48;;;;;;;173.73;89.40;;;26.30;2201.60;;;;;;5035822;28;20040;-75
2021/01/10 08:25:21;;;;;;;118.10;62.40;;;26.40;2201.60;;;;;;5022051;28;20034;-76
2021/01/10 08:27:47;;;;;;;155.52;79.53;;;26.30;2201.60;;;;;;5014545;28;20045;-75
2021/01/10 08:30:15;;;;;;;193.80;93.40;;;26.30;2201.60;;;;;;5015481;28;20010;-76
2021/01/10 08:32:45;;;;;;;230.73;111.70;;;26.30;2201.60;;;;;;5014792;28;20069;-75
2021/01/10 08:35:11;;;;;;;140.50;72.37;;;26.30;2201.60;;;;;;5011232;28;20006;-75
2021/01/10 08:37:40;;;;;;;116.27;62.97;;;26.30;2201.60;;;;;;5013408;28;20037;-75
2021/01/10 08:40:08;;;;;;;105.03;59.37;;;26.40;2201.60;;;;;;5013515;28;20034;-75
2021/01/10 08:42:35;;;;;;;114.57;60.27;;;26.40;2201.60;;;;;;5013630;28;20069;-77
2021/01/10 08:45:14;;;;;;;174.33;83.70;;;26.40;2201.60;;;;;;5013665;28;20031;-76
2021/01/10 08:47:42;;;;;;;303.03;141.67;;;26.50;2201.60;;;;;;5014331;28;20090;-75
2021/01/10 08:50:26;;;;;;;411.87;205.00;;;26.50;2201.60;;;;;;5013618;28;20172;-74
2021/01/10 08:52:58;;;;;;;257.40;126.28;;;26.50;2201.60;;;;;;5013864;28;20056;-74
2021/01/10 08:55:37;;;;;;;316.60;149.87;;;26.50;2201.60;;;;;;5015307;28;20034;-74
2021/01/10 08:58:08;;;;;;;320.63;150.27;;;51.20;2227.20;;;;;;5017398;28;20082;-75
2021/01/10 09:00:39;;;;;;;415.00;188.47;;;51.20;2227.20;;;;;;5016946;28;20007;-75
2021/01/10 09:03:20;;;;;;;397.47;171.43;;;51.20;2227.20;;;;;;5016570;28;20038;-74
2021/01/10 09:05:49;;;;;;;384.57;173.70;;;51.20;2227.20;;;;;;5033276;28;20060;-74
2021/01/10 09:08:47;;;;;;;393.47;175.80;;;51.20;2227.20;;;;;;5018035;28;20036;-74
2021/01/10 09:11:48;;;;;;;253.07;119.17;;;51.20;2227.20;;;;;;5018147;28;20015;-74
2021/01/10 09:14:17;;;;;;;302.03;139.83;;;51.20;2227.20;;;;;;5035814;28;20021;-74
2021/01/10 09:17:11;;;;;;;194.83;97.50;;;51.20;2227.20;;;;;;5015507;28;20026;-74
2021/01/10 09:19:37;;;;;;;153.80;82.37;;;51.20;2227.20;;;;;;5016101;28;20026;-74
2021/01/10 09:22:12;;;;;;;113.13;62.37;;;51.20;2227.20;;;;;;5016780;28;20018;-75
2021/01/10 09:24:43;;;;;;;115.00;61.80;;;51.20;2227.20;;;;;;5016409;28;20037;-75
2021/01/10 09:27:14;;;;;;;108.47;56.70;;;51.20;2227.20;;;;;;5017036;28;20027;-74
2021/01/10 09:29:41;;;;;;;217.63;111.33;;;51.20;2227.20;;;;;;5015591;28;20033;-74
2021/01/10 09:32:19;;;;;;;364.70;174.30;;;51.20;2227.20;;;;;;5033441;28;20126;-74
2021/01/10 09:34:54;;;;;;;267.43;131.07;;;51.20;2227.20;;;;;;5035597;28;20010;-74
2021/01/10 09:37:27;;;;;;;240.27;118.37;;;51.20;2227.20;;;;;;5033934;28;20122;-74
2021/01/10 09:40:07;;;;;;;206.17;105.60;;;51.30;2227.20;;;;;;5034018;28;20014;-74
2021/01/10 09:42:47;;;;;;;205.70;114.77;;;51.30;2227.20;;;;;;5031391;28;20018;-74
2021/01/10 09:45:35;;;;;;;218.47;111.77;;;51.30;2227.20;;;;;;5035013;28;20006;-74
2021/01/10 09:48:21;;;;;;;154.93;76.20;;;51.30;2227.20;;;;;;5039594;28;20034;-75
2021/01/10 09:50:47;;;;;;;178.27;90.30;;;51.30;2227.20;;;;;;5035009;28;20026;-74
2021/01/10 09:53:30;;;;;;;161.00;87.30;;;51.30;2227.20;;;;;;5016703;28;20082;-74
2021/01/10 09:55:58;;;;;;;114.95;59.33;;;51.30;2227.20;;;;;;5016274;28;20060;-74
2021/01/10 09:58:24;;;;;;;108.27;55.13;;;51.40;2227.20;;;;;;5013510;28;20018;-76
2021/01/10 10:00:57;;;;;;;106.50;51.20;;;51.40;2227.20;;;;;;5022623;28;20034;-74
2021/01/10 10:03:27;;;;;;;112.57;56.20;;;51.40;2227.20;;;;;;5032246;28;20034;-74
2021/01/10 10:06:08;;;;;;;105.93;52.53;;;51.40;2227.20;;;;;;5028696;28;20026;-73
2021/01/10 10:08:52;;;;;;;107.40;51.10;;;51.50;2227.20;;;;;;5025387;28;20021;-74
2021/01/10 10:11:19;;;;;;;98.65;47.28;;;51.50;2227.20;;;;;;5030472;28;20034;-74
2021/01/10 10:13:44;;;;;;;111.43;54.97;;;51.50;2227.20;;;;;;5032783;28;20041;-74
2021/01/10 10:16:16;;;;;;;115.70;58.03;;;51.40;2227.20;;;;;;5026550;28;20073;-74
2021/01/10 10:18:42;;;;;;;93.70;48.07;;;51.50;2227.20;;;;;;5023101;28;20037;-74
2021/01/10 10:21:08;;;;;;;78.10;40.07;;;51.40;2227.20;;;;;;5026978;28;20382;-74
2021/01/10 10:23:34;;;;;;;82.67;42.70;;;51.50;2227.20;;;;;;5022610;28;20025;-74
2021/01/10 10:26:00;;;;;;;87.50;44.53;;;51.40;2227.20;;;;;;5025117;28;20018;-74
2021/01/10 10:28:25;;;;;;;80.27;41.53;;;51.40;2227.20;;;;;;5024688;28;20057;-73
2021/01/10 10:30:51;;;;;;;78.27;40.70;;;51.40;2227.20;;;;;;5026974;28;20124;-74
2021/01/10 10:33:17;;;;;;;97.30;48.87;;;51.40;2227.20;;;;;;5027975;28;20113;-74
2021/01/10 10:35:43;;;;;;;88.47;42.30;;;51.40;2227.20;;;;;;5031620;28;20013;-76
2021/01/10 10:38:18;;;;;;;105.33;54.57;;;51.40;2227.20;;;;;;5029128;28;20026;-75
2021/01/10 10:40:44;;;;;;;81.33;40.20;;;51.40;2227.20;;;;;;5026823;28;20044;-74
2021/01/10 10:43:10;;;;;;;100.43;51.70;;;51.40;2227.20;;;;;;5028698;28;20070;-74
2021/01/10 10:45:36;;;;;;;123.30;65.57;;;51.40;2227.20;;;;;;5025981;28;20025;-74
2021/01/10 10:48:01;;;;;;;101.43;46.73;;;51.40;2227.20;;;;;;5030001;28;20026;-74
2021/01/10 10:50:27;;;;;;;116.57;55.67;;;51.40;2227.20;;;;;;5031179;28;20038;-74
2021/01/10 10:52:54;;;;;;;137.57;65.97;;;51.40;2227.20;;;;;;5030702;28;20037;-74
2021/01/10 10:55:22;;;;;;;144.67;65.97;;;51.40;2227.20;;;;;;5032691;28;20034;-74
2021/01/10 10:57:47;;;;;;;158.83;78.20;;;51.40;2227.20;;;;;;5031079;28;20541;-74
2021/01/10 11:00:14;;;;;;;141.43;64.47;;;51.40;2227.20;;;;;;5022889;28;20030;-74
2021/01/10 11:02:40;;;;;;;105.80;48.57;;;51.30;2227.20;;;;;;5031053;28;20040;-74
2021/01/10 11:05:06;;;;;;;118.87;59.10;;;51.30;2227.20;;;;;;5025061;28;20014;-74
2021/01/10 11:07:35;;;;;;;130.50;58.97;;;51.30;2227.20;;;;;;5027905;28;20030;-74
2021/01/10 11:10:01;;;;;;;185.30;76.93;;;51.30;2227.20;;;;;;5028706;28;20061;-74
2021/01/10 11:12:26;;;;;;;213.83;92.70;;;51.20;2227.20;;;;;;5027622;28;20078;-74
2021/01/10 11:14:52;;;;;;;339.40;126.60;;;51.30;2227.20;;;;;;5020594;28;20078;-73
2021/01/10 11:17:18;;;;;;;136.40;61.70;;;51.30;2227.20;;;;;;5043859;22;20134;-74
2021/01/10 11:19:44;;;;;;;123.10;50.00;;;51.20;2227.20;;;;;;5039289;23;20027;-74
2021/01/10 11:22:10;;;;;;;165.10;73.03;;;51.20;2227.20;;;;;;5017311;28;20030;-75
2021/01/10 11:24:36;;;;;;;155.60;67.07;;;51.20;2227.20;;;;;;5029119;23;20054;-75
2021/01/10 11:27:02;;;;;;;173.93;78.10;;;51.20;2227.20;;;;;;5020033;28;20033;-75
2021/01/10 11:29:29;;;;;;;241.17;113.47;;;51.20;2227.20;;;;;;5018954;28;20030;-75
2021/01/10 11:31:55;;;;;;;201.73;108.40;;;26.50;2201.60;;;;;;5019348;28;20006;-74
2021/01/10 11:34:21;;;;;;;218.40;100.83;;;51.20;2227.20;;;;;;5020249;28;20042;-76
2021/01/10 11:36:49;;;;;;;215.93;106.57;;;51.20;2227.20;;;;;;5027768;23;20484;-74
2021/01/10 11:42:13;;;;;;;155.02;72.95;;;51.20;2227.20;;;;;;5028894;28;20053;-75
2021/01/10 11:44:39;;;;;;;165.83;80.23;;;51.20;2227.20;;;;;;5020402;23;20057;-74
2021/01/10 11:47:05;;;;;;;123.50;55.57;;;51.20;2227.20;;;;;;5003444;28;20065;-76
2021/01/10 11:49:30;;;;;;;145.63;64.07;;;51.20;2227.20;;;;;;5000947;28;20035;-74
2021/01/10 11:51:57;;;;;;;150.97;78.13;;;51.20;2227.20;;;;;;4996175;28;20057;-75
2021/01/10 11:54:23;;;;;;;104.73;50.37;;;51.20;2227.20;;;;;;4986771;28;20053;-74
2021/01/10 11:56:53;;;;;;;94.13;42.03;;;51.20;2227.20;;;;;;4985709;28;20031;-75
2021/01/10 11:59:19;;;;;;;117.70;59.53;;;26.50;2201.60;;;;;;4995675;28;20491;-75
2021/01/10 12:01:45;;;;;;;129.43;67.73;;;51.20;2227.20;;;;;;4995499;28;20117;-75
2021/01/10 12:04:12;;;;;;;116.37;56.33;;;51.20;2227.20;;;;;;4993216;28;20495;-75
2021/01/10 12:06:40;;;;;;;88.67;41.07;;;51.20;2227.20;;;;;;4993428;28;20053;-74
2021/01/10 12:09:14;;;;;;;129.73;59.73;;;51.20;2227.20;;;;;;4993074;28;20042;-75
2021/01/10 12:11:40;;;;;;;103.47;43.07;;;51.20;2227.20;;;;;;4992758;28;20114;-76
2021/01/10 12:14:07;;;;;;;115.37;49.33;;;51.20;2227.20;;;;;;4992583;28;20030;-75
2021/01/10 12:16:36;;;;;;;141.17;59.07;;;51.20;2227.20;;;;;;4992259;28;20085;-75
2021/01/10 12:19:02;;;;;;;140.33;63.50;;;51.20;2227.20;;;;;;4993369;28;20029;-74